sensor_id;sensor_type;location;lat;lon;timestamp;P1;durP1;ratioP1;P2;durP2;ratioP2
31818;SDS011;18384;48.860;9.188;2024-03-22T00:02:01;21.87;;;13.62;;
31818;SDS011;18384;48.860;9.188;2024-03-22T00:06:53;27.27;;;13.73;;
31818;SDS011;18384;48.860;9.188;2024-03-22T00:09:20;22.00;;;12.90;;
31818;SDS011;18384;48.860;9.188;2024-03-22T00:11:46;24.33;;;13.75;;
31818;SDS011;18384;48.860;9.188;2024-03-22T00:14:12;19.90;;;12.60;;
31818;SDS011;18384;48.860;9.188;2024-03-22T00:16:38;20.12;;;12.10;;
31818;SDS011;18384;48.860;9.188;2024-03-22T00:21:31;21.98;;;12.70;;
31818;SDS011;18384;48.860;9.188;2024-03-22T00:23:57;24.17;;;13.07;;
31818;SDS011;18384;48.860;9.188;2024-03-22T00:26:23;25.60;;;12.37;;
31818;SDS011;18384;48.860;9.188;2024-03-22T00:31:16;19.08;;;11.77;;
31818;SDS011;18384;48.860;9.188;2024-03-22T00:33:42;23.00;;;12.02;;
31818;SDS011;18384;48.860;9.188;2024-03-22T00:36:08;18.70;;;12.00;;
31818;SDS011;18384;48.860;9.188;2024-03-22T00:41:00;23.58;;;12.32;;
31818;SDS011;18384;48.860;9.188;2024-03-22T00:43:27;25.75;;;11.70;;
31818;SDS011;18384;48.860;9.188;2024-03-22T00:45:53;18.25;;;11.45;;
31818;SDS011;18384;48.860;9.188;2024-03-22T00:48:19;26.40;;;12.90;;
31818;SDS011;18384;48.860;9.188;2024-03-22T00:50:45;21.65;;;12.93;;
31818;SDS011;18384;48.860;9.188;2024-03-22T00:53:11;20.00;;;12.40;;
31818;SDS011;18384;48.860;9.188;2024-03-22T00:55:37;19.92;;;11.65;;
31818;SDS011;18384;48.860;9.188;2024-03-22T00:58:04;21.30;;;11.68;;
31818;SDS011;18384;48.860;9.188;2024-03-22T01:00:30;20.65;;;12.25;;
31818;SDS011;18384;48.860;9.188;2024-03-22T01:02:56;25.15;;;12.65;;
31818;SDS011;18384;48.860;9.188;2024-03-22T01:05:22;24.95;;;12.18;;
31818;SDS011;18384;48.860;9.188;2024-03-22T01:07:48;19.73;;;11.07;;
31818;SDS011;18384;48.860;9.188;2024-03-22T01:10:14;20.92;;;11.43;;
31818;SDS011;18384;48.860;9.188;2024-03-22T01:12:40;19.25;;;12.95;;
31818;SDS011;18384;48.860;9.188;2024-03-22T01:17:33;22.55;;;11.85;;
31818;SDS011;18384;48.860;9.188;2024-03-22T01:19:59;20.58;;;12.65;;
31818;SDS011;18384;48.860;9.188;2024-03-22T01:22:25;22.37;;;13.05;;
31818;SDS011;18384;48.860;9.188;2024-03-22T01:24:52;24.30;;;12.43;;
31818;SDS011;18384;48.860;9.188;2024-03-22T01:27:18;22.17;;;12.07;;
31818;SDS011;18384;48.860;9.188;2024-03-22T01:29:45;18.12;;;12.07;;
31818;SDS011;18384;48.860;9.188;2024-03-22T01:32:12;18.83;;;11.90;;
31818;SDS011;18384;48.860;9.188;2024-03-22T01:37:05;18.83;;;11.95;;
31818;SDS011;18384;48.860;9.188;2024-03-22T01:39:31;24.52;;;13.07;;
31818;SDS011;18384;48.860;9.188;2024-03-22T01:41:57;23.27;;;13.27;;
31818;SDS011;18384;48.860;9.188;2024-03-22T01:44:26;22.62;;;12.45;;
31818;SDS011;18384;48.860;9.188;2024-03-22T01:46:53;22.13;;;12.27;;
31818;SDS011;18384;48.860;9.188;2024-03-22T01:51:46;19.67;;;12.00;;
31818;SDS011;18384;48.860;9.188;2024-03-22T01:54:13;20.30;;;11.93;;
31818;SDS011;18384;48.860;9.188;2024-03-22T01:56:42;20.67;;;13.38;;
31818;SDS011;18384;48.860;9.188;2024-03-22T01:59:08;26.83;;;12.63;;
31818;SDS011;18384;48.860;9.188;2024-03-22T02:01:34;21.98;;;13.55;;
31818;SDS011;18384;48.860;9.188;2024-03-22T02:04:01;22.27;;;12.02;;
31818;SDS011;18384;48.860;9.188;2024-03-22T02:08:54;23.30;;;12.57;;
31818;SDS011;18384;48.860;9.188;2024-03-22T02:11:20;23.27;;;12.82;;
31818;SDS011;18384;48.860;9.188;2024-03-22T02:16:13;24.95;;;12.35;;
31818;SDS011;18384;48.860;9.188;2024-03-22T02:18:39;25.98;;;11.40;;
31818;SDS011;18384;48.860;9.188;2024-03-22T02:21:05;22.17;;;10.70;;
31818;SDS011;18384;48.860;9.188;2024-03-22T02:23:35;19.90;;;12.13;;
31818;SDS011;18384;48.860;9.188;2024-03-22T02:26:03;20.77;;;11.55;;
31818;SDS011;18384;48.860;9.188;2024-03-22T02:28:30;23.90;;;12.23;;
31818;SDS011;18384;48.860;9.188;2024-03-22T02:30:58;20.88;;;12.25;;
31818;SDS011;18384;48.860;9.188;2024-03-22T02:33:25;19.62;;;11.35;;
31818;SDS011;18384;48.860;9.188;2024-03-22T02:38:18;18.10;;;12.13;;
31818;SDS011;18384;48.860;9.188;2024-03-22T02:40:44;15.75;;;11.43;;
31818;SDS011;18384;48.860;9.188;2024-03-22T02:43:13;21.95;;;12.60;;
31818;SDS011;18384;48.860;9.188;2024-03-22T02:45:39;22.48;;;11.55;;
31818;SDS011;18384;48.860;9.188;2024-03-22T02:48:05;24.67;;;11.82;;
31818;SDS011;18384;48.860;9.188;2024-03-22T02:50:35;21.23;;;11.65;;
31818;SDS011;18384;48.860;9.188;2024-03-22T02:53:02;20.52;;;11.12;;
31818;SDS011;18384;48.860;9.188;2024-03-22T02:55:30;20.73;;;12.30;;
31818;SDS011;18384;48.860;9.188;2024-03-22T02:58:05;22.77;;;13.27;;
31818;SDS011;18384;48.860;9.188;2024-03-22T03:00:36;22.08;;;13.55;;
31818;SDS011;18384;48.860;9.188;2024-03-22T03:03:05;24.58;;;13.18;;
31818;SDS011;18384;48.860;9.188;2024-03-22T03:05:32;27.17;;;13.62;;
31818;SDS011;18384;48.860;9.188;2024-03-22T03:07:58;27.02;;;14.02;;
31818;SDS011;18384;48.860;9.188;2024-03-22T03:10:24;27.50;;;14.27;;
31818;SDS011;18384;48.860;9.188;2024-03-22T03:12:54;27.10;;;13.15;;
31818;SDS011;18384;48.860;9.188;2024-03-22T03:15:20;22.05;;;13.35;;
31818;SDS011;18384;48.860;9.188;2024-03-22T03:20:12;27.70;;;14.65;;
31818;SDS011;18384;48.860;9.188;2024-03-22T03:22:41;34.42;;;15.38;;
31818;SDS011;18384;48.860;9.188;2024-03-22T03:25:08;29.12;;;14.73;;
31818;SDS011;18384;48.860;9.188;2024-03-22T03:27:34;24.85;;;13.73;;
31818;SDS011;18384;48.860;9.188;2024-03-22T03:32:27;24.73;;;14.30;;
31818;SDS011;18384;48.860;9.188;2024-03-22T03:34:53;26.30;;;15.02;;
31818;SDS011;18384;48.860;9.188;2024-03-22T03:37:19;25.65;;;13.93;;
31818;SDS011;18384;48.860;9.188;2024-03-22T03:39:46;25.02;;;14.98;;
31818;SDS011;18384;48.860;9.188;2024-03-22T03:42:12;21.25;;;13.55;;
31818;SDS011;18384;48.860;9.188;2024-03-22T03:44:38;29.45;;;14.75;;
31818;SDS011;18384;48.860;9.188;2024-03-22T03:47:04;26.62;;;13.65;;
31818;SDS011;18384;48.860;9.188;2024-03-22T03:51:56;23.58;;;13.35;;
31818;SDS011;18384;48.860;9.188;2024-03-22T03:54:22;25.40;;;13.93;;
31818;SDS011;18384;48.860;9.188;2024-03-22T03:56:48;23.45;;;13.10;;
31818;SDS011;18384;48.860;9.188;2024-03-22T03:59:14;22.58;;;13.57;;
31818;SDS011;18384;48.860;9.188;2024-03-22T04:01:41;27.58;;;13.65;;
31818;SDS011;18384;48.860;9.188;2024-03-22T04:04:07;24.35;;;14.00;;
31818;SDS011;18384;48.860;9.188;2024-03-22T04:06:33;38.38;;;14.57;;
31818;SDS011;18384;48.860;9.188;2024-03-22T04:08:59;22.73;;;13.68;;
31818;SDS011;18384;48.860;9.188;2024-03-22T04:11:25;24.75;;;13.20;;
31818;SDS011;18384;48.860;9.188;2024-03-22T04:13:52;20.90;;;13.23;;
31818;SDS011;18384;48.860;9.188;2024-03-22T04:16:18;22.27;;;13.45;;
31818;SDS011;18384;48.860;9.188;2024-03-22T04:18:44;23.38;;;13.35;;
31818;SDS011;18384;48.860;9.188;2024-03-22T04:21:10;22.95;;;13.00;;
31818;SDS011;18384;48.860;9.188;2024-03-22T04:23:36;21.70;;;13.43;;
31818;SDS011;18384;48.860;9.188;2024-03-22T04:26:02;21.95;;;12.82;;
31818;SDS011;18384;48.860;9.188;2024-03-22T04:28:29;20.30;;;13.50;;
31818;SDS011;18384;48.860;9.188;2024-03-22T04:31:02;22.15;;;13.32;;
31818;SDS011;18384;48.860;9.188;2024-03-22T04:33:36;19.75;;;12.48;;
31818;SDS011;18384;48.860;9.188;2024-03-22T04:36:03;23.77;;;13.00;;
31818;SDS011;18384;48.860;9.188;2024-03-22T04:38:30;24.87;;;13.15;;
31818;SDS011;18384;48.860;9.188;2024-03-22T04:40:56;22.55;;;13.57;;
31818;SDS011;18384;48.860;9.188;2024-03-22T04:43:23;21.62;;;13.48;;
31818;SDS011;18384;48.860;9.188;2024-03-22T04:45:50;21.27;;;12.32;;
31818;SDS011;18384;48.860;9.188;2024-03-22T04:48:18;24.40;;;13.60;;
31818;SDS011;18384;48.860;9.188;2024-03-22T04:50:47;25.42;;;12.80;;
31818;SDS011;18384;48.860;9.188;2024-03-22T04:53:15;24.23;;;12.68;;
31818;SDS011;18384;48.860;9.188;2024-03-22T04:55:45;23.30;;;13.25;;
31818;SDS011;18384;48.860;9.188;2024-03-22T04:58:12;26.17;;;13.10;;
31818;SDS011;18384;48.860;9.188;2024-03-22T05:00:40;21.83;;;12.65;;
31818;SDS011;18384;48.860;9.188;2024-03-22T05:03:07;22.42;;;12.07;;
31818;SDS011;18384;48.860;9.188;2024-03-22T05:05:34;25.80;;;12.18;;
31818;SDS011;18384;48.860;9.188;2024-03-22T05:08:01;23.60;;;12.40;;
31818;SDS011;18384;48.860;9.188;2024-03-22T05:10:27;18.67;;;11.00;;
31818;SDS011;18384;48.860;9.188;2024-03-22T05:12:55;19.52;;;12.13;;
31818;SDS011;18384;48.860;9.188;2024-03-22T05:15:22;21.48;;;12.52;;
31818;SDS011;18384;48.860;9.188;2024-03-22T05:17:50;27.60;;;12.88;;
31818;SDS011;18384;48.860;9.188;2024-03-22T05:20:17;19.37;;;11.77;;
31818;SDS011;18384;48.860;9.188;2024-03-22T05:22:43;23.83;;;12.93;;
31818;SDS011;18384;48.860;9.188;2024-03-22T05:25:09;22.20;;;11.52;;
31818;SDS011;18384;48.860;9.188;2024-03-22T05:27:35;26.73;;;11.77;;
31818;SDS011;18384;48.860;9.188;2024-03-22T05:30:02;17.58;;;10.88;;
31818;SDS011;18384;48.860;9.188;2024-03-22T05:32:29;21.20;;;11.15;;
31818;SDS011;18384;48.860;9.188;2024-03-22T05:34:55;15.32;;;10.80;;
31818;SDS011;18384;48.860;9.188;2024-03-22T05:37:21;22.90;;;11.43;;
31818;SDS011;18384;48.860;9.188;2024-03-22T05:39:48;29.42;;;11.95;;
31818;SDS011;18384;48.860;9.188;2024-03-22T05:42:14;22.45;;;11.27;;
31818;SDS011;18384;48.860;9.188;2024-03-22T05:44:40;20.60;;;11.65;;
31818;SDS011;18384;48.860;9.188;2024-03-22T05:47:06;22.65;;;11.48;;
31818;SDS011;18384;48.860;9.188;2024-03-22T05:49:33;18.25;;;10.75;;
31818;SDS011;18384;48.860;9.188;2024-03-22T05:51:59;24.48;;;12.73;;
31818;SDS011;18384;48.860;9.188;2024-03-22T05:54:25;19.92;;;11.55;;
31818;SDS011;18384;48.860;9.188;2024-03-22T05:56:51;24.33;;;12.25;;
31818;SDS011;18384;48.860;9.188;2024-03-22T05:59:17;25.35;;;11.77;;
31818;SDS011;18384;48.860;9.188;2024-03-22T06:01:43;21.27;;;11.27;;
31818;SDS011;18384;48.860;9.188;2024-03-22T06:04:10;19.75;;;11.25;;
31818;SDS011;18384;48.860;9.188;2024-03-22T06:06:36;22.23;;;12.75;;
31818;SDS011;18384;48.860;9.188;2024-03-22T06:09:03;18.20;;;11.60;;
31818;SDS011;18384;48.860;9.188;2024-03-22T06:11:30;24.60;;;12.07;;
31818;SDS011;18384;48.860;9.188;2024-03-22T06:13:56;23.80;;;12.70;;
31818;SDS011;18384;48.860;9.188;2024-03-22T06:16:22;23.45;;;12.68;;
31818;SDS011;18384;48.860;9.188;2024-03-22T06:18:48;21.80;;;12.77;;
31818;SDS011;18384;48.860;9.188;2024-03-22T06:21:15;23.50;;;13.27;;
31818;SDS011;18384;48.860;9.188;2024-03-22T06:23:46;23.62;;;12.00;;
31818;SDS011;18384;48.860;9.188;2024-03-22T06:26:15;22.73;;;13.18;;
31818;SDS011;18384;48.860;9.188;2024-03-22T06:28:42;23.42;;;13.57;;
31818;SDS011;18384;48.860;9.188;2024-03-22T06:33:38;22.62;;;12.68;;
31818;SDS011;18384;48.860;9.188;2024-03-22T06:36:05;22.42;;;12.43;;
31818;SDS011;18384;48.860;9.188;2024-03-22T06:40:57;28.70;;;13.05;;
31818;SDS011;18384;48.860;9.188;2024-03-22T06:43:24;24.63;;;12.25;;
31818;SDS011;18384;48.860;9.188;2024-03-22T06:45:50;22.33;;;11.65;;
31818;SDS011;18384;48.860;9.188;2024-03-22T06:48:16;19.27;;;12.95;;
31818;SDS011;18384;48.860;9.188;2024-03-22T06:53:09;18.92;;;11.57;;
31818;SDS011;18384;48.860;9.188;2024-03-22T06:55:37;23.38;;;11.27;;
31818;SDS011;18384;48.860;9.188;2024-03-22T06:58:03;23.67;;;12.18;;
31818;SDS011;18384;48.860;9.188;2024-03-22T07:00:30;22.60;;;11.75;;
31818;SDS011;18384;48.860;9.188;2024-03-22T07:02:56;19.65;;;12.05;;
31818;SDS011;18384;48.860;9.188;2024-03-22T07:05:22;25.85;;;12.02;;
31818;SDS011;18384;48.860;9.188;2024-03-22T07:07:48;21.58;;;10.73;;
31818;SDS011;18384;48.860;9.188;2024-03-22T07:10:21;19.35;;;11.85;;
31818;SDS011;18384;48.860;9.188;2024-03-22T07:12:48;19.25;;;11.65;;
31818;SDS011;18384;48.860;9.188;2024-03-22T07:15:14;24.55;;;12.88;;
31818;SDS011;18384;48.860;9.188;2024-03-22T07:17:40;28.87;;;11.45;;
31818;SDS011;18384;48.860;9.188;2024-03-22T07:20:06;20.37;;;11.85;;
31818;SDS011;18384;48.860;9.188;2024-03-22T07:22:33;23.17;;;12.70;;
31818;SDS011;18384;48.860;9.188;2024-03-22T07:24:59;24.40;;;12.88;;
31818;SDS011;18384;48.860;9.188;2024-03-22T07:27:25;24.10;;;12.07;;
31818;SDS011;18384;48.860;9.188;2024-03-22T07:29:54;30.23;;;13.20;;
31818;SDS011;18384;48.860;9.188;2024-03-22T07:32:20;26.65;;;12.90;;
31818;SDS011;18384;48.860;9.188;2024-03-22T07:34:47;23.05;;;12.18;;
31818;SDS011;18384;48.860;9.188;2024-03-22T07:37:13;24.67;;;12.05;;
31818;SDS011;18384;48.860;9.188;2024-03-22T07:39:39;24.67;;;12.77;;
31818;SDS011;18384;48.860;9.188;2024-03-22T07:42:05;18.52;;;11.02;;
31818;SDS011;18384;48.860;9.188;2024-03-22T07:44:31;21.10;;;11.82;;
31818;SDS011;18384;48.860;9.188;2024-03-22T07:46:58;29.67;;;12.45;;
31818;SDS011;18384;48.860;9.188;2024-03-22T07:49:24;18.50;;;10.65;;
31818;SDS011;18384;48.860;9.188;2024-03-22T07:51:50;25.62;;;11.25;;
31818;SDS011;18384;48.860;9.188;2024-03-22T07:54:18;20.35;;;11.15;;
31818;SDS011;18384;48.860;9.188;2024-03-22T07:56:45;18.02;;;11.38;;
31818;SDS011;18384;48.860;9.188;2024-03-22T07:59:11;20.12;;;10.88;;
31818;SDS011;18384;48.860;9.188;2024-03-22T08:04:04;19.52;;;12.25;;
31818;SDS011;18384;48.860;9.188;2024-03-22T08:06:30;27.83;;;13.55;;
31818;SDS011;18384;48.860;9.188;2024-03-22T08:08:56;35.58;;;16.48;;
31818;SDS011;18384;48.860;9.188;2024-03-22T08:11:22;23.58;;;12.30;;
31818;SDS011;18384;48.860;9.188;2024-03-22T08:13:48;23.23;;;11.65;;
31818;SDS011;18384;48.860;9.188;2024-03-22T08:16:14;13.52;;;9.70;;
31818;SDS011;18384;48.860;9.188;2024-03-22T08:18:40;22.27;;;10.73;;
31818;SDS011;18384;48.860;9.188;2024-03-22T08:21:06;15.63;;;9.07;;
31818;SDS011;18384;48.860;9.188;2024-03-22T08:23:32;21.12;;;9.43;;
31818;SDS011;18384;48.860;9.188;2024-03-22T08:25:59;14.93;;;9.40;;
31818;SDS011;18384;48.860;9.188;2024-03-22T08:28:25;20.77;;;10.18;;
31818;SDS011;18384;48.860;9.188;2024-03-22T08:30:51;19.00;;;8.93;;
31818;SDS011;18384;48.860;9.188;2024-03-22T08:33:17;16.10;;;10.70;;
31818;SDS011;18384;48.860;9.188;2024-03-22T08:35:44;16.33;;;9.77;;
31818;SDS011;18384;48.860;9.188;2024-03-22T08:38:10;15.10;;;8.50;;
31818;SDS011;18384;48.860;9.188;2024-03-22T08:40:40;23.20;;;9.60;;
31818;SDS011;18384;48.860;9.188;2024-03-22T08:43:07;15.63;;;9.20;;
31818;SDS011;18384;48.860;9.188;2024-03-22T08:45:33;17.55;;;8.98;;
31818;SDS011;18384;48.860;9.188;2024-03-22T08:47:59;17.25;;;9.02;;
31818;SDS011;18384;48.860;9.188;2024-03-22T08:50:25;16.52;;;9.02;;
31818;SDS011;18384;48.860;9.188;2024-03-22T08:52:52;13.52;;;8.68;;
31818;SDS011;18384;48.860;9.188;2024-03-22T08:55:18;18.90;;;9.93;;
31818;SDS011;18384;48.860;9.188;2024-03-22T08:57:44;16.33;;;9.95;;
31818;SDS011;18384;48.860;9.188;2024-03-22T09:00:10;16.83;;;8.75;;
31818;SDS011;18384;48.860;9.188;2024-03-22T09:02:37;17.98;;;9.00;;
31818;SDS011;18384;48.860;9.188;2024-03-22T09:05:04;23.00;;;8.98;;
31818;SDS011;18384;48.860;9.188;2024-03-22T09:07:31;14.82;;;9.02;;
31818;SDS011;18384;48.860;9.188;2024-03-22T09:09:57;17.50;;;9.30;;
31818;SDS011;18384;48.860;9.188;2024-03-22T09:12:23;18.60;;;8.60;;
31818;SDS011;18384;48.860;9.188;2024-03-22T09:14:49;15.15;;;8.60;;
31818;SDS011;18384;48.860;9.188;2024-03-22T09:17:15;17.20;;;9.00;;
31818;SDS011;18384;48.860;9.188;2024-03-22T09:19:41;15.60;;;9.35;;
31818;SDS011;18384;48.860;9.188;2024-03-22T09:22:08;21.42;;;9.48;;
31818;SDS011;18384;48.860;9.188;2024-03-22T09:24:34;16.10;;;8.70;;
31818;SDS011;18384;48.860;9.188;2024-03-22T09:27:00;15.02;;;8.93;;
31818;SDS011;18384;48.860;9.188;2024-03-22T09:29:26;17.55;;;8.65;;
31818;SDS011;18384;48.860;9.188;2024-03-22T09:31:52;17.45;;;8.60;;
31818;SDS011;18384;48.860;9.188;2024-03-22T09:34:18;22.23;;;9.20;;
31818;SDS011;18384;48.860;9.188;2024-03-22T09:36:46;16.98;;;9.27;;
31818;SDS011;18384;48.860;9.188;2024-03-22T09:39:13;19.15;;;9.07;;
31818;SDS011;18384;48.860;9.188;2024-03-22T09:41:41;14.00;;;8.23;;
31818;SDS011;18384;48.860;9.188;2024-03-22T09:44:12;13.60;;;8.45;;
31818;SDS011;18384;48.860;9.188;2024-03-22T09:46:41;15.73;;;8.60;;
31818;SDS011;18384;48.860;9.188;2024-03-22T09:49:09;10.60;;;6.78;;
31818;SDS011;18384;48.860;9.188;2024-03-22T09:51:36;10.65;;;6.07;;
31818;SDS011;18384;48.860;9.188;2024-03-22T09:54:03;9.20;;;5.03;;
31818;SDS011;18384;48.860;9.188;2024-03-22T09:58:56;9.77;;;5.22;;
31818;SDS011;18384;48.860;9.188;2024-03-22T10:01:23;13.98;;;4.68;;
31818;SDS011;18384;48.860;9.188;2024-03-22T10:03:53;8.57;;;4.72;;
31818;SDS011;18384;48.860;9.188;2024-03-22T10:06:20;9.18;;;4.95;;
31818;SDS011;18384;48.860;9.188;2024-03-22T10:11:13;15.75;;;5.80;;
31818;SDS011;18384;48.860;9.188;2024-03-22T10:13:39;23.12;;;5.53;;
31818;SDS011;18384;48.860;9.188;2024-03-22T10:16:06;13.23;;;5.70;;
31818;SDS011;18384;48.860;9.188;2024-03-22T10:18:32;14.55;;;5.93;;
31818;SDS011;18384;48.860;9.188;2024-03-22T10:21:02;16.67;;;5.05;;
31818;SDS011;18384;48.860;9.188;2024-03-22T10:23:30;10.40;;;5.60;;
31818;SDS011;18384;48.860;9.188;2024-03-22T10:25:57;8.18;;;5.35;;
31818;SDS011;18384;48.860;9.188;2024-03-22T10:28:25;8.85;;;5.37;;
31818;SDS011;18384;48.860;9.188;2024-03-22T10:30:51;13.65;;;5.82;;
31818;SDS011;18384;48.860;9.188;2024-03-22T10:33:18;11.20;;;5.75;;
31818;SDS011;18384;48.860;9.188;2024-03-22T10:35:47;10.68;;;5.00;;
31818;SDS011;18384;48.860;9.188;2024-03-22T10:38:19;9.82;;;4.87;;
31818;SDS011;18384;48.860;9.188;2024-03-22T10:40:51;10.55;;;5.22;;
31818;SDS011;18384;48.860;9.188;2024-03-22T10:45:43;12.80;;;5.60;;
31818;SDS011;18384;48.860;9.188;2024-03-22T10:48:17;10.20;;;4.87;;
31818;SDS011;18384;48.860;9.188;2024-03-22T10:50:45;9.07;;;4.75;;
31818;SDS011;18384;48.860;9.188;2024-03-22T10:53:16;13.90;;;5.22;;
31818;SDS011;18384;48.860;9.188;2024-03-22T10:55:46;11.02;;;5.07;;
31818;SDS011;18384;48.860;9.188;2024-03-22T10:58:17;10.15;;;5.12;;
31818;SDS011;18384;48.860;9.188;2024-03-22T11:00:47;15.63;;;6.30;;
31818;SDS011;18384;48.860;9.188;2024-03-22T11:03:19;9.70;;;4.90;;
31818;SDS011;18384;48.860;9.188;2024-03-22T11:05:53;13.05;;;4.65;;
31818;SDS011;18384;48.860;9.188;2024-03-22T11:08:29;11.07;;;4.82;;
31818;SDS011;18384;48.860;9.188;2024-03-22T11:10:56;17.02;;;5.10;;
31818;SDS011;18384;48.860;9.188;2024-03-22T11:13:23;12.37;;;5.45;;
31818;SDS011;18384;48.860;9.188;2024-03-22T11:18:16;12.43;;;4.78;;
31818;SDS011;18384;48.860;9.188;2024-03-22T11:20:43;8.13;;;4.40;;
31818;SDS011;18384;48.860;9.188;2024-03-22T11:23:13;10.10;;;4.90;;
31818;SDS011;18384;48.860;9.188;2024-03-22T11:25:39;11.00;;;4.85;;
31818;SDS011;18384;48.860;9.188;2024-03-22T11:28:06;7.78;;;4.22;;
31818;SDS011;18384;48.860;9.188;2024-03-22T11:33:05;7.65;;;4.20;;
31818;SDS011;18384;48.860;9.188;2024-03-22T11:35:32;12.05;;;4.95;;
31818;SDS011;18384;48.860;9.188;2024-03-22T11:37:59;7.80;;;4.30;;
31818;SDS011;18384;48.860;9.188;2024-03-22T11:42:52;4.82;;;2.92;;
31818;SDS011;18384;48.860;9.188;2024-03-22T11:45:20;7.87;;;3.08;;
31818;SDS011;18384;48.860;9.188;2024-03-22T11:47:48;8.02;;;3.30;;
31818;SDS011;18384;48.860;9.188;2024-03-22T11:52:41;8.77;;;3.28;;
31818;SDS011;18384;48.860;9.188;2024-03-22T11:55:07;6.72;;;3.53;;
31818;SDS011;18384;48.860;9.188;2024-03-22T11:57:36;7.25;;;3.08;;
31818;SDS011;18384;48.860;9.188;2024-03-22T12:02:37;9.75;;;2.70;;
31818;SDS011;18384;48.860;9.188;2024-03-22T12:05:04;5.68;;;2.90;;
31818;SDS011;18384;48.860;9.188;2024-03-22T12:07:31;9.20;;;2.83;;
31818;SDS011;18384;48.860;9.188;2024-03-22T12:09:58;10.68;;;3.10;;
31818;SDS011;18384;48.860;9.188;2024-03-22T12:14:50;10.88;;;4.00;;
31818;SDS011;18384;48.860;9.188;2024-03-22T12:17:16;13.10;;;3.40;;
31818;SDS011;18384;48.860;9.188;2024-03-22T12:19:43;14.40;;;3.72;;
31818;SDS011;18384;48.860;9.188;2024-03-22T12:22:09;7.22;;;3.15;;
31818;SDS011;18384;48.860;9.188;2024-03-22T12:27:02;6.18;;;3.42;;
31818;SDS011;18384;48.860;9.188;2024-03-22T12:29:28;6.12;;;3.10;;
31818;SDS011;18384;48.860;9.188;2024-03-22T12:31:58;11.63;;;3.95;;
31818;SDS011;18384;48.860;9.188;2024-03-22T12:34:27;13.27;;;4.40;;
31818;SDS011;18384;48.860;9.188;2024-03-22T12:36:57;5.25;;;2.83;;
31818;SDS011;18384;48.860;9.188;2024-03-22T12:39:24;7.43;;;3.08;;
31818;SDS011;18384;48.860;9.188;2024-03-22T12:41:50;9.77;;;3.30;;
31818;SDS011;18384;48.860;9.188;2024-03-22T12:44:17;8.02;;;2.90;;
31818;SDS011;18384;48.860;9.188;2024-03-22T12:49:10;5.47;;;2.90;;
31818;SDS011;18384;48.860;9.188;2024-03-22T12:51:37;11.07;;;3.00;;
31818;SDS011;18384;48.860;9.188;2024-03-22T12:54:03;7.10;;;3.10;;
31818;SDS011;18384;48.860;9.188;2024-03-22T12:56:30;8.02;;;3.45;;
31818;SDS011;18384;48.860;9.188;2024-03-22T12:58:58;13.68;;;3.30;;
31818;SDS011;18384;48.860;9.188;2024-03-22T13:01:25;8.00;;;2.55;;
31818;SDS011;18384;48.860;9.188;2024-03-22T13:03:51;6.25;;;3.00;;
31818;SDS011;18384;48.860;9.188;2024-03-22T13:08:43;10.77;;;3.25;;
31818;SDS011;18384;48.860;9.188;2024-03-22T13:13:36;7.32;;;3.55;;
31818;SDS011;18384;48.860;9.188;2024-03-22T13:18:29;9.93;;;3.45;;
31818;SDS011;18384;48.860;9.188;2024-03-22T13:20:55;9.77;;;3.20;;
31818;SDS011;18384;48.860;9.188;2024-03-22T13:25:48;10.40;;;3.92;;
31818;SDS011;18384;48.860;9.188;2024-03-22T13:30:46;13.65;;;4.12;;
31818;SDS011;18384;48.860;9.188;2024-03-22T13:35:38;10.15;;;4.03;;
31818;SDS011;18384;48.860;9.188;2024-03-22T13:38:06;8.57;;;3.28;;
31818;SDS011;18384;48.860;9.188;2024-03-22T13:40:38;8.45;;;3.78;;
31818;SDS011;18384;48.860;9.188;2024-03-22T13:43:05;9.77;;;3.25;;
31818;SDS011;18384;48.860;9.188;2024-03-22T13:45:32;7.85;;;3.80;;
31818;SDS011;18384;48.860;9.188;2024-03-22T13:47:58;9.80;;;3.60;;
31818;SDS011;18384;48.860;9.188;2024-03-22T13:52:50;8.73;;;3.40;;
31818;SDS011;18384;48.860;9.188;2024-03-22T13:55:16;10.90;;;3.20;;
31818;SDS011;18384;48.860;9.188;2024-03-22T13:57:42;7.65;;;3.35;;
31818;SDS011;18384;48.860;9.188;2024-03-22T14:00:09;8.82;;;3.22;;
31818;SDS011;18384;48.860;9.188;2024-03-22T14:02:39;10.82;;;3.17;;
31818;SDS011;18384;48.860;9.188;2024-03-22T14:07:33;7.37;;;2.67;;
31818;SDS011;18384;48.860;9.188;2024-03-22T14:10:00;6.53;;;2.65;;
31818;SDS011;18384;48.860;9.188;2024-03-22T14:14:52;8.27;;;2.70;;
31818;SDS011;18384;48.860;9.188;2024-03-22T14:17:18;9.52;;;2.47;;
31818;SDS011;18384;48.860;9.188;2024-03-22T14:19:44;7.93;;;2.72;;
31818;SDS011;18384;48.860;9.188;2024-03-22T14:22:11;5.22;;;2.30;;
31818;SDS011;18384;48.860;9.188;2024-03-22T14:24:37;5.53;;;1.73;;
31818;SDS011;18384;48.860;9.188;2024-03-22T14:27:04;4.60;;;1.50;;
31818;SDS011;18384;48.860;9.188;2024-03-22T14:29:31;5.72;;;1.30;;
31818;SDS011;18384;48.860;9.188;2024-03-22T14:34:23;5.47;;;1.30;;
31818;SDS011;18384;48.860;9.188;2024-03-22T14:39:15;7.53;;;2.00;;
31818;SDS011;18384;48.860;9.188;2024-03-22T14:41:41;9.93;;;1.67;;
31818;SDS011;18384;48.860;9.188;2024-03-22T14:44:07;3.28;;;1.58;;
31818;SDS011;18384;48.860;9.188;2024-03-22T14:46:33;3.33;;;1.42;;
31818;SDS011;18384;48.860;9.188;2024-03-22T14:48:59;5.28;;;1.37;;
31818;SDS011;18384;48.860;9.188;2024-03-22T14:53:52;4.62;;;1.60;;
31818;SDS011;18384;48.860;9.188;2024-03-22T14:56:18;4.68;;;1.58;;
31818;SDS011;18384;48.860;9.188;2024-03-22T14:58:44;7.45;;;1.40;;
31818;SDS011;18384;48.860;9.188;2024-03-22T15:01:10;5.82;;;2.67;;
31818;SDS011;18384;48.860;9.188;2024-03-22T15:06:03;2.45;;;1.50;;
31818;SDS011;18384;48.860;9.188;2024-03-22T15:08:30;3.62;;;1.40;;
31818;SDS011;18384;48.860;9.188;2024-03-22T15:10:57;10.13;;;1.60;;
31818;SDS011;18384;48.860;9.188;2024-03-22T15:15:52;7.37;;;1.50;;
31818;SDS011;18384;48.860;9.188;2024-03-22T15:18:23;3.95;;;1.30;;
31818;SDS011;18384;48.860;9.188;2024-03-22T15:20:49;12.30;;;6.00;;
31818;SDS011;18384;48.860;9.188;2024-03-22T15:23:17;7.53;;;4.00;;
31818;SDS011;18384;48.860;9.188;2024-03-22T15:25:45;9.02;;;1.48;;
31818;SDS011;18384;48.860;9.188;2024-03-22T15:28:12;8.57;;;2.45;;
31818;SDS011;18384;48.860;9.188;2024-03-22T15:30:39;4.10;;;1.90;;
31818;SDS011;18384;48.860;9.188;2024-03-22T15:33:07;5.60;;;2.12;;
31818;SDS011;18384;48.860;9.188;2024-03-22T15:35:36;5.00;;;1.92;;
31818;SDS011;18384;48.860;9.188;2024-03-22T15:38:03;7.28;;;3.08;;
31818;SDS011;18384;48.860;9.188;2024-03-22T15:40:32;6.00;;;1.60;;
31818;SDS011;18384;48.860;9.188;2024-03-22T15:42:58;9.57;;;1.92;;
31818;SDS011;18384;48.860;9.188;2024-03-22T15:45:25;5.47;;;1.92;;
31818;SDS011;18384;48.860;9.188;2024-03-22T15:47:52;5.12;;;1.62;;
31818;SDS011;18384;48.860;9.188;2024-03-22T15:50:18;6.68;;;2.03;;
31818;SDS011;18384;48.860;9.188;2024-03-22T15:52:45;3.30;;;2.08;;
31818;SDS011;18384;48.860;9.188;2024-03-22T15:55:11;10.63;;;2.22;;
31818;SDS011;18384;48.860;9.188;2024-03-22T16:00:04;7.43;;;2.58;;
31818;SDS011;18384;48.860;9.188;2024-03-22T16:02:32;6.25;;;1.85;;
31818;SDS011;18384;48.860;9.188;2024-03-22T16:07:24;4.87;;;2.00;;
31818;SDS011;18384;48.860;9.188;2024-03-22T16:09:50;8.27;;;2.83;;
31818;SDS011;18384;48.860;9.188;2024-03-22T16:12:17;4.82;;;2.95;;
31818;SDS011;18384;48.860;9.188;2024-03-22T16:14:43;5.18;;;2.33;;
31818;SDS011;18384;48.860;9.188;2024-03-22T16:17:09;9.75;;;3.28;;